sensor_id;sensor_type;location;lat;lon;timestamp;P1;durP1;ratioP1;P2;durP2;ratioP2
71856;SDS011;63344;46.980;28.882;2023-11-21T00:01:59;29.98;;;14.43;;
71856;SDS011;63344;46.980;28.882;2023-11-21T00:04:57;28.73;;;14.00;;
71856;SDS011;63344;46.980;28.882;2023-11-21T00:07:37;25.33;;;12.93;;
71856;SDS011;63344;46.980;28.882;2023-11-21T00:10:12;25.92;;;13.05;;
71856;SDS011;63344;46.980;28.882;2023-11-21T00:13:07;26.00;;;12.25;;
71856;SDS011;63344;46.980;28.882;2023-11-21T00:19:27;25.88;;;13.05;;
71856;SDS011;63344;46.980;28.882;2023-11-21T00:22:10;21.95;;;11.55;;
71856;SDS011;63344;46.980;28.882;2023-11-21T00:24:50;28.67;;;13.02;;
71856;SDS011;63344;46.980;28.882;2023-11-21T00:27:30;22.20;;;11.57;;
71856;SDS011;63344;46.980;28.882;2023-11-21T00:30:06;22.85;;;11.93;;
71856;SDS011;63344;46.980;28.882;2023-11-21T00:32:53;25.92;;;12.55;;
71856;SDS011;63344;46.980;28.882;2023-11-21T00:35:25;24.75;;;12.18;;
71856;SDS011;63344;46.980;28.882;2023-11-21T00:38:04;26.45;;;13.65;;
71856;SDS011;63344;46.980;28.882;2023-11-21T00:40:36;23.92;;;12.75;;
71856;SDS011;63344;46.980;28.882;2023-11-21T00:43:14;26.27;;;12.70;;
71856;SDS011;63344;46.980;28.882;2023-11-21T00:45:48;25.27;;;13.13;;
71856;SDS011;63344;46.980;28.882;2023-11-21T00:48:28;24.15;;;12.80;;
71856;SDS011;63344;46.980;28.882;2023-11-21T00:51:14;23.42;;;12.13;;
71856;SDS011;63344;46.980;28.882;2023-11-21T00:54:02;25.80;;;11.63;;
71856;SDS011;63344;46.980;28.882;2023-11-21T00:56:44;23.63;;;11.52;;
71856;SDS011;63344;46.980;28.882;2023-11-21T00:59:26;24.17;;;11.55;;
71856;SDS011;63344;46.980;28.882;2023-11-21T01:02:02;27.15;;;13.00;;
71856;SDS011;63344;46.980;28.882;2023-11-21T01:05:13;23.35;;;11.88;;
71856;SDS011;63344;46.980;28.882;2023-11-21T01:08:06;25.55;;;12.80;;
71856;SDS011;63344;46.980;28.882;2023-11-21T01:14:42;24.38;;;12.75;;
71856;SDS011;63344;46.980;28.882;2023-11-21T01:17:45;24.27;;;12.15;;
71856;SDS011;63344;46.980;28.882;2023-11-21T01:20:18;22.73;;;11.27;;
71856;SDS011;63344;46.980;28.882;2023-11-21T01:25:42;23.33;;;11.82;;
71856;SDS011;63344;46.980;28.882;2023-11-21T01:28:43;22.92;;;11.43;;
71856;SDS011;63344;46.980;28.882;2023-11-21T01:31:24;26.02;;;12.57;;
71856;SDS011;63344;46.980;28.882;2023-11-21T01:34:26;27.23;;;12.32;;
71856;SDS011;63344;46.980;28.882;2023-11-21T01:37:24;25.77;;;12.75;;
71856;SDS011;63344;46.980;28.882;2023-11-21T01:40:02;36.97;;;16.65;;
71856;SDS011;63344;46.980;28.882;2023-11-21T01:42:46;29.65;;;14.70;;
71856;SDS011;63344;46.980;28.882;2023-11-21T01:48:54;21.50;;;11.05;;
71856;SDS011;63344;46.980;28.882;2023-11-21T01:51:55;25.10;;;11.43;;
71856;SDS011;63344;46.980;28.882;2023-11-21T01:57:32;23.25;;;11.02;;
71856;SDS011;63344;46.980;28.882;2023-11-21T02:00:27;26.95;;;13.00;;
71856;SDS011;63344;46.980;28.882;2023-11-21T02:03:14;24.70;;;13.02;;
71856;SDS011;63344;46.980;28.882;2023-11-21T02:05:59;25.85;;;11.48;;
71856;SDS011;63344;46.980;28.882;2023-11-21T02:12:18;22.00;;;10.77;;
71856;SDS011;63344;46.980;28.882;2023-11-21T02:14:49;22.85;;;12.50;;
71856;SDS011;63344;46.980;28.882;2023-11-21T02:17:48;22.98;;;11.43;;
71856;SDS011;63344;46.980;28.882;2023-11-21T02:20:26;34.92;;;16.88;;
71856;SDS011;63344;46.980;28.882;2023-11-21T02:23:21;29.90;;;16.05;;
71856;SDS011;63344;46.980;28.882;2023-11-21T02:25:59;27.90;;;13.88;;
71856;SDS011;63344;46.980;28.882;2023-11-21T02:28:37;29.80;;;14.40;;
71856;SDS011;63344;46.980;28.882;2023-11-21T02:31:18;24.48;;;12.27;;
71856;SDS011;63344;46.980;28.882;2023-11-21T02:33:52;27.45;;;12.40;;
71856;SDS011;63344;46.980;28.882;2023-11-21T02:39:39;26.85;;;12.88;;
71856;SDS011;63344;46.980;28.882;2023-11-21T02:42:23;26.20;;;13.98;;
71856;SDS011;63344;46.980;28.882;2023-11-21T02:45:00;26.02;;;12.75;;
71856;SDS011;63344;46.980;28.882;2023-11-21T02:47:47;27.58;;;14.60;;
71856;SDS011;63344;46.980;28.882;2023-11-21T02:50:27;22.70;;;11.45;;
71856;SDS011;63344;46.980;28.882;2023-11-21T02:52:59;26.75;;;13.55;;
71856;SDS011;63344;46.980;28.882;2023-11-21T02:55:39;26.85;;;12.82;;
71856;SDS011;63344;46.980;28.882;2023-11-21T02:58:13;26.27;;;12.60;;
71856;SDS011;63344;46.980;28.882;2023-11-21T03:03:46;23.83;;;12.65;;
71856;SDS011;63344;46.980;28.882;2023-11-21T03:06:35;23.55;;;11.70;;
71856;SDS011;63344;46.980;28.882;2023-11-21T03:09:32;23.00;;;12.07;;
71856;SDS011;63344;46.980;28.882;2023-11-21T03:12:17;25.55;;;13.18;;
71856;SDS011;63344;46.980;28.882;2023-11-21T03:15:05;26.23;;;13.65;;
71856;SDS011;63344;46.980;28.882;2023-11-21T03:17:59;24.95;;;13.02;;
71856;SDS011;63344;46.980;28.882;2023-11-21T03:20:52;25.55;;;12.38;;
71856;SDS011;63344;46.980;28.882;2023-11-21T03:23:59;25.88;;;12.57;;
71856;SDS011;63344;46.980;28.882;2023-11-21T03:26:31;23.45;;;12.55;;
71856;SDS011;63344;46.980;28.882;2023-11-21T03:29:03;26.52;;;13.18;;
71856;SDS011;63344;46.980;28.882;2023-11-21T03:31:38;29.05;;;14.40;;
71856;SDS011;63344;46.980;28.882;2023-11-21T03:37:36;25.88;;;13.57;;
71856;SDS011;63344;46.980;28.882;2023-11-21T03:43:32;25.60;;;12.85;;
71856;SDS011;63344;46.980;28.882;2023-11-21T03:46:06;26.05;;;12.55;;
71856;SDS011;63344;46.980;28.882;2023-11-21T03:48:56;28.75;;;13.43;;
71856;SDS011;63344;46.980;28.882;2023-11-21T03:55:34;28.63;;;14.60;;
71856;SDS011;63344;46.980;28.882;2023-11-21T03:58:20;29.35;;;12.80;;
71856;SDS011;63344;46.980;28.882;2023-11-21T04:00:54;27.10;;;13.52;;
71856;SDS011;63344;46.980;28.882;2023-11-21T04:10:48;24.45;;;12.35;;
71856;SDS011;63344;46.980;28.882;2023-11-21T04:13:51;24.38;;;12.20;;
71856;SDS011;63344;46.980;28.882;2023-11-21T04:16:37;26.50;;;12.68;;
71856;SDS011;63344;46.980;28.882;2023-11-21T04:19:21;26.30;;;14.13;;
71856;SDS011;63344;46.980;28.882;2023-11-21T04:22:19;28.20;;;13.07;;
71856;SDS011;63344;46.980;28.882;2023-11-21T04:25:14;23.25;;;13.02;;
71856;SDS011;63344;46.980;28.882;2023-11-21T04:28:10;28.25;;;13.50;;
71856;SDS011;63344;46.980;28.882;2023-11-21T04:31:03;29.10;;;14.25;;
71856;SDS011;63344;46.980;28.882;2023-11-21T04:34:04;32.00;;;14.10;;
71856;SDS011;63344;46.980;28.882;2023-11-21T04:37:13;29.27;;;14.32;;
71856;SDS011;63344;46.980;28.882;2023-11-21T04:46:01;39.75;;;16.13;;
71856;SDS011;63344;46.980;28.882;2023-11-21T04:48:59;41.75;;;21.27;;
71856;SDS011;63344;46.980;28.882;2023-11-21T04:51:31;58.03;;;26.80;;
71856;SDS011;63344;46.980;28.882;2023-11-21T04:54:08;45.58;;;22.85;;
71856;SDS011;63344;46.980;28.882;2023-11-21T04:56:50;47.17;;;20.92;;
71856;SDS011;63344;46.980;28.882;2023-11-21T04:59:50;24.40;;;11.35;;
71856;SDS011;63344;46.980;28.882;2023-11-21T05:02:41;37.92;;;17.33;;
71856;SDS011;63344;46.980;28.882;2023-11-21T06:51:54;24.40;;;11.25;;
71856;SDS011;63344;46.980;28.882;2023-11-21T07:20:05;25.73;;;12.10;;
71856;SDS011;63344;46.980;28.882;2023-11-21T07:39:17;35.65;;;12.73;;
71856;SDS011;63344;46.980;28.882;2023-11-21T08:40:37;27.88;;;13.38;;
71856;SDS011;63344;46.980;28.882;2023-11-21T09:40:13;21.77;;;9.98;;
71856;SDS011;63344;46.980;28.882;2023-11-21T10:40:27;20.13;;;11.15;;
71856;SDS011;63344;46.980;28.882;2023-11-21T11:41:03;21.77;;;11.80;;
71856;SDS011;63344;46.980;28.882;2023-11-21T12:23:05;21.95;;;11.65;;
71856;SDS011;63344;46.980;28.882;2023-11-21T15:42:27;28.75;;;14.45;;
71856;SDS011;63344;46.980;28.882;2023-11-21T16:48:07;25.58;;;12.50;;
71856;SDS011;63344;46.980;28.882;2023-11-21T16:55:12;30.60;;;16.73;;
71856;SDS011;63344;46.980;28.882;2023-11-21T17:24:48;36.75;;;19.05;;
71856;SDS011;63344;46.980;28.882;2023-11-21T18:45:51;25.42;;;11.85;;
71856;SDS011;63344;46.980;28.882;2023-11-21T20:47:22;39.22;;;15.20;;
71856;SDS011;63344;46.980;28.882;2023-11-21T20:57:59;33.90;;;14.95;;
71856;SDS011;63344;46.980;28.882;2023-11-21T21:01:16;34.95;;;14.10;;
71856;SDS011;63344;46.980;28.882;2023-11-21T21:08:24;22.52;;;10.15;;
71856;SDS011;63344;46.980;28.882;2023-11-21T21:11:17;20.42;;;7.75;;
71856;SDS011;63344;46.980;28.882;2023-11-21T21:27:00;21.17;;;9.32;;
71856;SDS011;63344;46.980;28.882;2023-11-21T21:33:20;19.17;;;7.93;;
71856;SDS011;63344;46.980;28.882;2023-11-21T21:39:55;34.35;;;12.05;;
71856;SDS011;63344;46.980;28.882;2023-11-21T21:46:37;31.95;;;10.70;;
71856;SDS011;63344;46.980;28.882;2023-11-21T21:49:18;39.67;;;13.70;;
71856;SDS011;63344;46.980;28.882;2023-11-21T21:52:40;33.00;;;13.32;;
71856;SDS011;63344;46.980;28.882;2023-11-21T21:55:49;30.75;;;11.93;;
71856;SDS011;63344;46.980;28.882;2023-11-21T21:58:42;30.85;;;11.40;;
71856;SDS011;63344;46.980;28.882;2023-11-21T22:01:33;28.15;;;11.68;;
71856;SDS011;63344;46.980;28.882;2023-11-21T22:04:14;36.17;;;14.70;;
71856;SDS011;63344;46.980;28.882;2023-11-21T22:07:07;41.58;;;16.20;;
71856;SDS011;63344;46.980;28.882;2023-11-21T22:09:51;45.35;;;15.73;;
71856;SDS011;63344;46.980;28.882;2023-11-21T22:12:34;39.08;;;16.33;;
71856;SDS011;63344;46.980;28.882;2023-11-21T22:15:23;48.35;;;19.00;;
71856;SDS011;63344;46.980;28.882;2023-11-21T22:18:26;34.15;;;12.93;;
71856;SDS011;63344;46.980;28.882;2023-11-21T22:23:37;37.22;;;12.70;;
71856;SDS011;63344;46.980;28.882;2023-11-21T22:26:19;41.45;;;15.00;;
71856;SDS011;63344;46.980;28.882;2023-11-21T22:28:52;48.10;;;17.85;;
71856;SDS011;63344;46.980;28.882;2023-11-21T22:31:44;50.97;;;17.77;;
71856;SDS011;63344;46.980;28.882;2023-11-21T22:34:41;43.63;;;15.68;;
71856;SDS011;63344;46.980;28.882;2023-11-21T22:38:08;28.98;;;11.18;;
71856;SDS011;63344;46.980;28.882;2023-11-21T22:44:07;38.53;;;14.95;;
71856;SDS011;63344;46.980;28.882;2023-11-21T22:46:59;51.05;;;17.65;;
71856;SDS011;63344;46.980;28.882;2023-11-21T22:49:38;29.88;;;12.07;;
71856;SDS011;63344;46.980;28.882;2023-11-21T22:58:13;49.05;;;17.20;;
71856;SDS011;63344;46.980;28.882;2023-11-21T23:01:21;51.53;;;16.38;;
71856;SDS011;63344;46.980;28.882;2023-11-21T23:03:59;44.75;;;16.05;;
71856;SDS011;63344;46.980;28.882;2023-11-21T23:06:48;51.17;;;17.48;;
71856;SDS011;63344;46.980;28.882;2023-11-21T23:09:28;52.55;;;17.35;;
71856;SDS011;63344;46.980;28.882;2023-11-21T23:12:27;46.03;;;15.55;;
71856;SDS011;63344;46.980;28.882;2023-11-21T23:14:56;41.78;;;15.48;;
71856;SDS011;63344;46.980;28.882;2023-11-21T23:17:48;37.92;;;14.48;;
71856;SDS011;63344;46.980;28.882;2023-11-21T23:20:34;43.40;;;17.23;;
71856;SDS011;63344;46.980;28.882;2023-11-21T23:23:08;46.58;;;16.02;;
71856;SDS011;63344;46.980;28.882;2023-11-21T23:26:03;52.50;;;17.02;;
71856;SDS011;63344;46.980;28.882;2023-11-21T23:28:51;43.97;;;15.50;;
71856;SDS011;63344;46.980;28.882;2023-11-21T23:31:20;51.95;;;17.92;;
71856;SDS011;63344;46.980;28.882;2023-11-21T23:34:02;44.45;;;16.90;;
71856;SDS011;63344;46.980;28.882;2023-11-21T23:36:47;48.22;;;16.67;;
71856;SDS011;63344;46.980;28.882;2023-11-21T23:39:28;37.15;;;13.30;;
71856;SDS011;63344;46.980;28.882;2023-11-21T23:42:04;43.75;;;14.52;;
71856;SDS011;63344;46.980;28.882;2023-11-21T23:44:50;35.58;;;11.10;;
71856;SDS011;63344;46.980;28.882;2023-11-21T23:47:29;51.50;;;17.00;;
71856;SDS011;63344;46.980;28.882;2023-11-21T23:50:03;47.42;;;15.50;;
71856;SDS011;63344;46.980;28.882;2023-11-21T23:52:43;57.88;;;19.13;;
71856;SDS011;63344;46.980;28.882;2023-11-21T23:58:23;41.10;;;13.85;;
